sensor_id;sensor_type;location;lat;lon;timestamp;P1;durP1;ratioP1;P2;durP2;ratioP2
27818;SDS011;15192;44.854;10.046;2023-05-10T00:00:44;19.95;;;14.80;;
27818;SDS011;15192;44.854;10.046;2023-05-10T00:03:13;21.17;;;14.43;;
27818;SDS011;15192;44.854;10.046;2023-05-10T00:05:42;20.95;;;15.70;;
27818;SDS011;15192;44.854;10.046;2023-05-10T00:08:11;23.62;;;14.98;;
27818;SDS011;15192;44.854;10.046;2023-05-10T00:10:40;20.15;;;13.70;;
27818;SDS011;15192;44.854;10.046;2023-05-10T00:13:09;23.98;;;12.88;;
27818;SDS011;15192;44.854;10.046;2023-05-10T00:15:38;18.17;;;13.45;;
27818;SDS011;15192;44.854;10.046;2023-05-10T00:18:07;16.02;;;12.37;;
27818;SDS011;15192;44.854;10.046;2023-05-10T00:20:36;20.77;;;12.15;;
27818;SDS011;15192;44.854;10.046;2023-05-10T00:23:04;19.23;;;11.12;;
27818;SDS011;15192;44.854;10.046;2023-05-10T00:25:33;17.85;;;11.97;;
27818;SDS011;15192;44.854;10.046;2023-05-10T00:28:02;14.75;;;10.40;;
27818;SDS011;15192;44.854;10.046;2023-05-10T00:30:31;15.98;;;10.55;;
27818;SDS011;15192;44.854;10.046;2023-05-10T00:33:01;18.17;;;11.35;;
27818;SDS011;15192;44.854;10.046;2023-05-10T00:35:30;16.75;;;11.38;;
27818;SDS011;15192;44.854;10.046;2023-05-10T00:37:59;16.70;;;10.32;;
27818;SDS011;15192;44.854;10.046;2023-05-10T00:40:28;17.07;;;10.70;;
27818;SDS011;15192;44.854;10.046;2023-05-10T00:42:59;15.93;;;11.63;;
27818;SDS011;15192;44.854;10.046;2023-05-10T00:45:29;14.63;;;11.40;;
27818;SDS011;15192;44.854;10.046;2023-05-10T00:48:00;19.17;;;12.30;;
27818;SDS011;15192;44.854;10.046;2023-05-10T00:50:31;17.20;;;11.80;;
27818;SDS011;15192;44.854;10.046;2023-05-10T00:53:01;23.40;;;12.85;;
27818;SDS011;15192;44.854;10.046;2023-05-10T00:55:31;20.35;;;12.20;;
27818;SDS011;15192;44.854;10.046;2023-05-10T00:58:00;19.50;;;12.63;;
27818;SDS011;15192;44.854;10.046;2023-05-10T01:00:29;22.00;;;12.55;;
27818;SDS011;15192;44.854;10.046;2023-05-10T01:03:00;20.85;;;13.25;;
27818;SDS011;15192;44.854;10.046;2023-05-10T01:05:29;17.80;;;12.65;;
27818;SDS011;15192;44.854;10.046;2023-05-10T01:07:58;18.80;;;13.32;;
27818;SDS011;15192;44.854;10.046;2023-05-10T01:10:30;18.50;;;13.18;;
27818;SDS011;15192;44.854;10.046;2023-05-10T01:12:59;21.23;;;13.88;;
27818;SDS011;15192;44.854;10.046;2023-05-10T01:15:28;21.00;;;13.70;;
27818;SDS011;15192;44.854;10.046;2023-05-10T01:17:58;20.00;;;13.70;;
27818;SDS011;15192;44.854;10.046;2023-05-10T01:20:32;17.75;;;12.95;;
27818;SDS011;15192;44.854;10.046;2023-05-10T01:28:50;24.87;;;15.70;;
27818;SDS011;15192;44.854;10.046;2023-05-10T01:34:07;26.95;;;16.70;;
27818;SDS011;15192;44.854;10.046;2023-05-10T01:36:45;26.85;;;17.35;;
27818;SDS011;15192;44.854;10.046;2023-05-10T01:39:20;19.60;;;14.55;;
27818;SDS011;15192;44.854;10.046;2023-05-10T01:42:01;25.85;;;17.42;;
27818;SDS011;15192;44.854;10.046;2023-05-10T01:44:31;28.38;;;17.10;;
27818;SDS011;15192;44.854;10.046;2023-05-10T01:47:14;25.15;;;17.07;;
27818;SDS011;15192;44.854;10.046;2023-05-10T01:52:14;26.00;;;17.65;;
27818;SDS011;15192;44.854;10.046;2023-05-10T01:55:50;27.05;;;17.92;;
27818;SDS011;15192;44.854;10.046;2023-05-10T01:57:38;27.67;;;18.37;;
27818;SDS011;15192;44.854;10.046;2023-05-10T02:00:03;26.00;;;17.67;;
27818;SDS011;15192;44.854;10.046;2023-05-10T02:02:44;25.97;;;17.67;;
27818;SDS011;15192;44.854;10.046;2023-05-10T02:05:14;26.37;;;19.00;;
27818;SDS011;15192;44.854;10.046;2023-05-10T02:07:45;29.57;;;19.67;;
27818;SDS011;15192;44.854;10.046;2023-05-10T02:10:14;28.17;;;19.60;;
27818;SDS011;15192;44.854;10.046;2023-05-10T02:12:45;30.27;;;19.40;;
27818;SDS011;15192;44.854;10.046;2023-05-10T02:15:17;31.87;;;20.23;;
27818;SDS011;15192;44.854;10.046;2023-05-10T02:17:48;29.12;;;19.20;;
27818;SDS011;15192;44.854;10.046;2023-05-10T02:20:18;35.20;;;20.15;;
27818;SDS011;15192;44.854;10.046;2023-05-10T02:22:49;29.60;;;19.90;;
27818;SDS011;15192;44.854;10.046;2023-05-10T02:25:20;29.45;;;19.27;;
27818;SDS011;15192;44.854;10.046;2023-05-10T02:27:51;27.32;;;18.73;;
27818;SDS011;15192;44.854;10.046;2023-05-10T02:30:24;28.20;;;20.02;;
27818;SDS011;15192;44.854;10.046;2023-05-10T02:32:54;27.50;;;18.77;;
27818;SDS011;15192;44.854;10.046;2023-05-10T02:35:24;27.27;;;19.37;;
27818;SDS011;15192;44.854;10.046;2023-05-10T02:37:54;28.62;;;20.88;;
27818;SDS011;15192;44.854;10.046;2023-05-10T02:40:24;28.65;;;19.70;;
27818;SDS011;15192;44.854;10.046;2023-05-10T02:42:56;29.23;;;19.42;;
27818;SDS011;15192;44.854;10.046;2023-05-10T02:45:27;28.85;;;20.82;;
27818;SDS011;15192;44.854;10.046;2023-05-10T02:47:59;32.65;;;20.05;;
27818;SDS011;15192;44.854;10.046;2023-05-10T02:50:28;29.57;;;18.85;;
27818;SDS011;15192;44.854;10.046;2023-05-10T02:55:35;25.57;;;17.27;;
27818;SDS011;15192;44.854;10.046;2023-05-10T02:58:07;25.77;;;17.80;;
27818;SDS011;15192;44.854;10.046;2023-05-10T03:00:36;34.58;;;18.92;;
27818;SDS011;15192;44.854;10.046;2023-05-10T03:03:04;27.65;;;18.45;;
27818;SDS011;15192;44.854;10.046;2023-05-10T03:05:34;26.17;;;17.55;;
27818;SDS011;15192;44.854;10.046;2023-05-10T03:08:03;26.10;;;17.45;;
27818;SDS011;15192;44.854;10.046;2023-05-10T03:10:33;25.43;;;18.35;;
27818;SDS011;15192;44.854;10.046;2023-05-10T03:16:10;23.00;;;16.65;;
27818;SDS011;15192;44.854;10.046;2023-05-10T03:18:48;21.93;;;15.55;;
27818;SDS011;15192;44.854;10.046;2023-05-10T03:21:28;16.90;;;12.63;;
27818;SDS011;15192;44.854;10.046;2023-05-10T03:24:03;16.95;;;13.30;;
27818;SDS011;15192;44.854;10.046;2023-05-10T03:29:02;18.42;;;11.97;;
27818;SDS011;15192;44.854;10.046;2023-05-10T03:31:32;19.48;;;12.03;;
27818;SDS011;15192;44.854;10.046;2023-05-10T03:34:02;16.52;;;11.90;;
27818;SDS011;15192;44.854;10.046;2023-05-10T03:36:31;16.60;;;12.43;;
27818;SDS011;15192;44.854;10.046;2023-05-10T03:39:00;15.83;;;11.28;;
27818;SDS011;15192;44.854;10.046;2023-05-10T03:41:29;19.60;;;11.85;;
27818;SDS011;15192;44.854;10.046;2023-05-10T03:43:58;15.72;;;11.65;;
27818;SDS011;15192;44.854;10.046;2023-05-10T03:46:28;15.65;;;11.60;;
27818;SDS011;15192;44.854;10.046;2023-05-10T03:48:58;16.48;;;10.82;;
27818;SDS011;15192;44.854;10.046;2023-05-10T03:51:27;15.08;;;10.80;;
27818;SDS011;15192;44.854;10.046;2023-05-10T03:53:56;18.55;;;11.00;;
27818;SDS011;15192;44.854;10.046;2023-05-10T03:56:25;17.10;;;10.65;;
27818;SDS011;15192;44.854;10.046;2023-05-10T03:58:54;15.65;;;10.88;;
27818;SDS011;15192;44.854;10.046;2023-05-10T04:01:23;16.73;;;11.03;;
27818;SDS011;15192;44.854;10.046;2023-05-10T04:03:52;16.40;;;10.82;;
27818;SDS011;15192;44.854;10.046;2023-05-10T04:06:21;13.93;;;11.12;;
27818;SDS011;15192;44.854;10.046;2023-05-10T04:08:51;14.43;;;10.38;;
27818;SDS011;15192;44.854;10.046;2023-05-10T04:11:19;17.87;;;11.38;;
27818;SDS011;15192;44.854;10.046;2023-05-10T04:13:48;15.28;;;10.55;;
27818;SDS011;15192;44.854;10.046;2023-05-10T04:16:18;17.32;;;10.82;;
27818;SDS011;15192;44.854;10.046;2023-05-10T04:18:46;14.25;;;10.68;;
27818;SDS011;15192;44.854;10.046;2023-05-10T04:21:15;13.78;;;10.48;;
27818;SDS011;15192;44.854;10.046;2023-05-10T04:23:44;13.30;;;10.50;;
27818;SDS011;15192;44.854;10.046;2023-05-10T04:26:13;14.45;;;10.50;;
27818;SDS011;15192;44.854;10.046;2023-05-10T04:28:42;13.65;;;10.68;;
27818;SDS011;15192;44.854;10.046;2023-05-10T04:31:11;15.63;;;8.85;;
27818;SDS011;15192;44.854;10.046;2023-05-10T04:33:40;13.62;;;9.08;;
27818;SDS011;15192;44.854;10.046;2023-05-10T04:36:09;12.58;;;10.10;;
27818;SDS011;15192;44.854;10.046;2023-05-10T04:38:37;12.05;;;9.40;;
27818;SDS011;15192;44.854;10.046;2023-05-10T04:41:07;12.65;;;9.25;;
27818;SDS011;15192;44.854;10.046;2023-05-10T04:43:37;13.83;;;9.05;;
27818;SDS011;15192;44.854;10.046;2023-05-10T04:46:06;12.28;;;9.35;;
27818;SDS011;15192;44.854;10.046;2023-05-10T04:48:35;13.40;;;9.43;;
27818;SDS011;15192;44.854;10.046;2023-05-10T04:51:04;15.23;;;9.90;;
27818;SDS011;15192;44.854;10.046;2023-05-10T04:53:33;14.05;;;9.93;;
27818;SDS011;15192;44.854;10.046;2023-05-10T04:56:02;13.53;;;8.83;;
27818;SDS011;15192;44.854;10.046;2023-05-10T04:58:32;14.10;;;9.40;;
27818;SDS011;15192;44.854;10.046;2023-05-10T05:01:07;17.95;;;10.20;;
27818;SDS011;15192;44.854;10.046;2023-05-10T05:03:37;12.60;;;9.78;;
27818;SDS011;15192;44.854;10.046;2023-05-10T05:06:06;13.00;;;10.55;;
27818;SDS011;15192;44.854;10.046;2023-05-10T05:08:35;14.63;;;9.93;;
27818;SDS011;15192;44.854;10.046;2023-05-10T05:11:04;12.70;;;9.58;;
27818;SDS011;15192;44.854;10.046;2023-05-10T05:13:33;13.60;;;10.10;;
27818;SDS011;15192;44.854;10.046;2023-05-10T05:16:02;13.72;;;10.15;;
27818;SDS011;15192;44.854;10.046;2023-05-10T05:18:31;12.28;;;9.53;;
27818;SDS011;15192;44.854;10.046;2023-05-10T05:21:00;14.55;;;10.85;;
27818;SDS011;15192;44.854;10.046;2023-05-10T05:23:29;13.50;;;10.72;;
27818;SDS011;15192;44.854;10.046;2023-05-10T05:25:58;11.93;;;9.75;;
27818;SDS011;15192;44.854;10.046;2023-05-10T05:28:27;14.65;;;11.03;;
27818;SDS011;15192;44.854;10.046;2023-05-10T05:30:57;13.35;;;10.68;;
27818;SDS011;15192;44.854;10.046;2023-05-10T05:33:26;15.88;;;11.97;;
27818;SDS011;15192;44.854;10.046;2023-05-10T05:35:55;14.95;;;11.78;;
27818;SDS011;15192;44.854;10.046;2023-05-10T05:38:24;13.38;;;10.55;;
27818;SDS011;15192;44.854;10.046;2023-05-10T05:40:53;17.30;;;10.90;;
27818;SDS011;15192;44.854;10.046;2023-05-10T05:43:22;14.78;;;10.90;;
27818;SDS011;15192;44.854;10.046;2023-05-10T05:45:54;15.63;;;10.70;;
27818;SDS011;15192;44.854;10.046;2023-05-10T05:48:24;14.85;;;9.83;;
27818;SDS011;15192;44.854;10.046;2023-05-10T05:50:56;13.45;;;9.38;;
27818;SDS011;15192;44.854;10.046;2023-05-10T05:53:25;12.05;;;9.50;;
27818;SDS011;15192;44.854;10.046;2023-05-10T05:55:55;14.38;;;8.93;;
27818;SDS011;15192;44.854;10.046;2023-05-10T05:58:26;10.83;;;8.80;;
27818;SDS011;15192;44.854;10.046;2023-05-10T06:00:55;12.43;;;8.98;;
27818;SDS011;15192;44.854;10.046;2023-05-10T06:03:24;11.25;;;8.78;;
27818;SDS011;15192;44.854;10.046;2023-05-10T06:05:53;13.50;;;9.15;;
27818;SDS011;15192;44.854;10.046;2023-05-10T06:08:21;12.55;;;8.68;;
27818;SDS011;15192;44.854;10.046;2023-05-10T06:10:50;11.73;;;8.35;;
27818;SDS011;15192;44.854;10.046;2023-05-10T06:13:19;14.33;;;9.38;;
27818;SDS011;15192;44.854;10.046;2023-05-10T06:15:48;11.45;;;8.43;;
27818;SDS011;15192;44.854;10.046;2023-05-10T06:18:18;14.18;;;8.80;;
27818;SDS011;15192;44.854;10.046;2023-05-10T06:20:46;13.65;;;9.05;;
27818;SDS011;15192;44.854;10.046;2023-05-10T06:23:17;12.37;;;8.83;;
27818;SDS011;15192;44.854;10.046;2023-05-10T06:25:46;12.95;;;9.20;;
27818;SDS011;15192;44.854;10.046;2023-05-10T06:28:14;12.35;;;8.33;;
27818;SDS011;15192;44.854;10.046;2023-05-10T06:30:43;15.30;;;8.00;;
27818;SDS011;15192;44.854;10.046;2023-05-10T06:33:12;8.60;;;7.12;;
27818;SDS011;15192;44.854;10.046;2023-05-10T06:35:43;11.83;;;7.97;;
27818;SDS011;15192;44.854;10.046;2023-05-10T06:38:12;12.73;;;7.45;;
27818;SDS011;15192;44.854;10.046;2023-05-10T06:40:41;8.45;;;6.70;;
27818;SDS011;15192;44.854;10.046;2023-05-10T06:43:10;10.93;;;6.92;;
27818;SDS011;15192;44.854;10.046;2023-05-10T06:45:39;11.15;;;8.28;;
27818;SDS011;15192;44.854;10.046;2023-05-10T06:48:08;10.03;;;7.72;;
27818;SDS011;15192;44.854;10.046;2023-05-10T06:50:37;9.75;;;6.67;;
27818;SDS011;15192;44.854;10.046;2023-05-10T06:53:06;9.83;;;6.72;;
27818;SDS011;15192;44.854;10.046;2023-05-10T06:55:34;13.75;;;6.97;;
27818;SDS011;15192;44.854;10.046;2023-05-10T06:58:03;9.55;;;6.62;;
27818;SDS011;15192;44.854;10.046;2023-05-10T07:00:33;10.23;;;7.33;;
27818;SDS011;15192;44.854;10.046;2023-05-10T07:03:02;8.63;;;6.28;;
27818;SDS011;15192;44.854;10.046;2023-05-10T07:05:31;11.53;;;6.85;;
27818;SDS011;15192;44.854;10.046;2023-05-10T07:08:00;12.70;;;7.12;;
27818;SDS011;15192;44.854;10.046;2023-05-10T07:10:29;11.78;;;6.80;;
27818;SDS011;15192;44.854;10.046;2023-05-10T07:12:58;8.63;;;6.28;;
27818;SDS011;15192;44.854;10.046;2023-05-10T07:15:28;11.45;;;6.33;;
27818;SDS011;15192;44.854;10.046;2023-05-10T07:17:57;8.38;;;6.28;;
27818;SDS011;15192;44.854;10.046;2023-05-10T07:20:26;7.45;;;5.75;;
27818;SDS011;15192;44.854;10.046;2023-05-10T07:22:55;10.65;;;6.00;;
27818;SDS011;15192;44.854;10.046;2023-05-10T07:25:24;9.60;;;6.30;;
27818;SDS011;15192;44.854;10.046;2023-05-10T07:27:53;8.93;;;6.42;;
27818;SDS011;15192;44.854;10.046;2023-05-10T07:30:21;10.93;;;6.58;;
27818;SDS011;15192;44.854;10.046;2023-05-10T07:32:51;11.22;;;6.75;;
27818;SDS011;15192;44.854;10.046;2023-05-10T07:35:20;9.70;;;6.50;;
27818;SDS011;15192;44.854;10.046;2023-05-10T07:37:48;10.48;;;5.78;;
27818;SDS011;15192;44.854;10.046;2023-05-10T07:40:17;10.32;;;6.17;;
27818;SDS011;15192;44.854;10.046;2023-05-10T07:42:46;9.83;;;5.90;;
27818;SDS011;15192;44.854;10.046;2023-05-10T07:45:15;9.65;;;6.60;;
27818;SDS011;15192;44.854;10.046;2023-05-10T07:47:44;7.85;;;5.45;;
27818;SDS011;15192;44.854;10.046;2023-05-10T07:50:13;8.53;;;5.37;;
27818;SDS011;15192;44.854;10.046;2023-05-10T07:52:42;9.65;;;6.00;;
27818;SDS011;15192;44.854;10.046;2023-05-10T07:55:11;8.53;;;6.40;;
27818;SDS011;15192;44.854;10.046;2023-05-10T07:57:41;10.88;;;6.08;;
27818;SDS011;15192;44.854;10.046;2023-05-10T08:00:16;11.95;;;6.15;;
27818;SDS011;15192;44.854;10.046;2023-05-10T08:05:11;10.48;;;6.55;;
27818;SDS011;15192;44.854;10.046;2023-05-10T08:07:40;11.78;;;6.60;;
27818;SDS011;15192;44.854;10.046;2023-05-10T08:10:09;7.90;;;5.72;;
27818;SDS011;15192;44.854;10.046;2023-05-10T08:12:38;9.48;;;5.92;;
27818;SDS011;15192;44.854;10.046;2023-05-10T08:15:07;9.45;;;5.80;;
27818;SDS011;15192;44.854;10.046;2023-05-10T08:17:37;7.37;;;5.45;;
27818;SDS011;15192;44.854;10.046;2023-05-10T08:20:06;8.63;;;5.65;;
27818;SDS011;15192;44.854;10.046;2023-05-10T08:22:35;7.83;;;5.33;;
27818;SDS011;15192;44.854;10.046;2023-05-10T08:25:04;9.10;;;5.62;;
27818;SDS011;15192;44.854;10.046;2023-05-10T08:27:34;7.70;;;5.65;;
27818;SDS011;15192;44.854;10.046;2023-05-10T08:30:02;7.85;;;5.33;;
27818;SDS011;15192;44.854;10.046;2023-05-10T08:32:32;7.72;;;5.12;;
27818;SDS011;15192;44.854;10.046;2023-05-10T08:35:01;6.85;;;4.65;;
27818;SDS011;15192;44.854;10.046;2023-05-10T08:37:30;7.65;;;5.28;;
27818;SDS011;15192;44.854;10.046;2023-05-10T08:40:00;8.70;;;5.37;;
27818;SDS011;15192;44.854;10.046;2023-05-10T08:42:29;9.58;;;5.62;;
27818;SDS011;15192;44.854;10.046;2023-05-10T08:45:00;7.78;;;5.42;;
27818;SDS011;15192;44.854;10.046;2023-05-10T08:47:30;8.30;;;5.60;;
27818;SDS011;15192;44.854;10.046;2023-05-10T08:49:59;8.83;;;5.50;;
27818;SDS011;15192;44.854;10.046;2023-05-10T08:52:30;7.97;;;4.87;;
27818;SDS011;15192;44.854;10.046;2023-05-10T08:55:02;7.25;;;5.60;;
27818;SDS011;15192;44.854;10.046;2023-05-10T08:57:31;9.78;;;4.95;;
27818;SDS011;15192;44.854;10.046;2023-05-10T09:00:01;7.58;;;4.67;;
27818;SDS011;15192;44.854;10.046;2023-05-10T09:02:30;7.47;;;4.90;;
27818;SDS011;15192;44.854;10.046;2023-05-10T09:04:59;7.50;;;4.60;;
27818;SDS011;15192;44.854;10.046;2023-05-10T09:07:28;8.35;;;4.40;;
27818;SDS011;15192;44.854;10.046;2023-05-10T09:09:57;7.97;;;4.42;;
27818;SDS011;15192;44.854;10.046;2023-05-10T09:12:26;8.33;;;4.65;;
27818;SDS011;15192;44.854;10.046;2023-05-10T09:14:55;8.65;;;5.33;;
27818;SDS011;15192;44.854;10.046;2023-05-10T09:17:27;8.50;;;5.28;;
27818;SDS011;15192;44.854;10.046;2023-05-10T09:20:03;6.12;;;4.28;;
27818;SDS011;15192;44.854;10.046;2023-05-10T09:22:30;7.15;;;5.05;;
27818;SDS011;15192;44.854;10.046;2023-05-10T09:25:08;6.92;;;4.47;;
27818;SDS011;15192;44.854;10.046;2023-05-10T09:27:39;8.08;;;4.70;;
27818;SDS011;15192;44.854;10.046;2023-05-10T09:30:09;6.50;;;4.62;;
27818;SDS011;15192;44.854;10.046;2023-05-10T09:32:39;7.22;;;5.20;;
27818;SDS011;15192;44.854;10.046;2023-05-10T09:35:14;6.90;;;4.60;;
27818;SDS011;15192;44.854;10.046;2023-05-10T09:37:48;7.15;;;4.78;;
27818;SDS011;15192;44.854;10.046;2023-05-10T09:40:27;7.20;;;5.28;;
27818;SDS011;15192;44.854;10.046;2023-05-10T09:43:00;6.97;;;4.67;;
27818;SDS011;15192;44.854;10.046;2023-05-10T09:45:31;6.40;;;3.92;;
27818;SDS011;15192;44.854;10.046;2023-05-10T09:48:01;5.53;;;4.08;;
27818;SDS011;15192;44.854;10.046;2023-05-10T09:50:30;5.42;;;4.05;;
27818;SDS011;15192;44.854;10.046;2023-05-10T09:53:01;10.18;;;4.00;;
27818;SDS011;15192;44.854;10.046;2023-05-10T09:55:44;5.85;;;4.12;;
27818;SDS011;15192;44.854;10.046;2023-05-10T09:58:16;8.58;;;4.17;;
27818;SDS011;15192;44.854;10.046;2023-05-10T10:00:45;7.58;;;4.05;;
27818;SDS011;15192;44.854;10.046;2023-05-10T10:03:17;6.70;;;3.58;;
27818;SDS011;15192;44.854;10.046;2023-05-10T10:05:48;5.70;;;3.87;;
27818;SDS011;15192;44.854;10.046;2023-05-10T10:08:17;4.55;;;3.35;;
27818;SDS011;15192;44.854;10.046;2023-05-10T10:10:46;5.87;;;3.77;;
27818;SDS011;15192;44.854;10.046;2023-05-10T10:13:15;4.00;;;3.17;;
27818;SDS011;15192;44.854;10.046;2023-05-10T10:15:44;6.55;;;3.52;;
27818;SDS011;15192;44.854;10.046;2023-05-10T10:18:14;5.50;;;3.77;;
27818;SDS011;15192;44.854;10.046;2023-05-10T10:20:43;6.40;;;4.00;;
27818;SDS011;15192;44.854;10.046;2023-05-10T10:23:12;7.70;;;3.72;;
27818;SDS011;15192;44.854;10.046;2023-05-10T10:25:41;5.37;;;3.70;;
27818;SDS011;15192;44.854;10.046;2023-05-10T10:28:16;6.40;;;3.95;;
27818;SDS011;15192;44.854;10.046;2023-05-10T10:30:48;4.85;;;3.72;;
27818;SDS011;15192;44.854;10.046;2023-05-10T10:36:02;5.72;;;4.00;;
27818;SDS011;15192;44.854;10.046;2023-05-10T10:41:34;5.62;;;4.00;;
27818;SDS011;15192;44.854;10.046;2023-05-10T10:52:31;7.85;;;4.33;;
27818;SDS011;15192;44.854;10.046;2023-05-10T10:57:49;5.12;;;3.30;;
27818;SDS011;15192;44.854;10.046;2023-05-10T11:00:23;5.37;;;3.60;;
27818;SDS011;15192;44.854;10.046;2023-05-10T11:03:08;5.42;;;3.83;;
27818;SDS011;15192;44.854;10.046;2023-05-10T11:05:42;4.95;;;3.40;;
27818;SDS011;15192;44.854;10.046;2023-05-10T11:08:28;4.10;;;3.27;;
27818;SDS011;15192;44.854;10.046;2023-05-10T11:13:43;6.60;;;3.42;;
27818;SDS011;15192;44.854;10.046;2023-05-10T11:16:16;4.92;;;4.03;;
27818;SDS011;15192;44.854;10.046;2023-05-10T11:18:57;5.75;;;3.00;;
27818;SDS011;15192;44.854;10.046;2023-05-10T11:21:29;3.77;;;2.47;;
27818;SDS011;15192;44.854;10.046;2023-05-10T11:24:00;4.00;;;2.70;;
27818;SDS011;15192;44.854;10.046;2023-05-10T11:26:32;4.47;;;3.12;;
27818;SDS011;15192;44.854;10.046;2023-05-10T11:29:04;3.98;;;2.85;;
27818;SDS011;15192;44.854;10.046;2023-05-10T11:31:33;5.40;;;2.92;;
27818;SDS011;15192;44.854;10.046;2023-05-10T11:34:02;4.72;;;3.37;;
27818;SDS011;15192;44.854;10.046;2023-05-10T11:36:34;4.75;;;3.50;;
27818;SDS011;15192;44.854;10.046;2023-05-10T11:39:03;4.22;;;3.52;;
27818;SDS011;15192;44.854;10.046;2023-05-10T11:41:33;3.90;;;2.98;;
27818;SDS011;15192;44.854;10.046;2023-05-10T11:44:02;4.65;;;3.27;;
27818;SDS011;15192;44.854;10.046;2023-05-10T11:46:31;4.22;;;3.10;;
27818;SDS011;15192;44.854;10.046;2023-05-10T11:49:00;4.03;;;3.35;;
27818;SDS011;15192;44.854;10.046;2023-05-10T11:51:32;5.90;;;3.10;;
27818;SDS011;15192;44.854;10.046;2023-05-10T11:54:06;5.37;;;3.62;;
27818;SDS011;15192;44.854;10.046;2023-05-10T11:56:37;6.12;;;3.70;;
27818;SDS011;15192;44.854;10.046;2023-05-10T11:59:07;6.95;;;3.60;;
27818;SDS011;15192;44.854;10.046;2023-05-10T12:01:36;5.87;;;3.77;;
27818;SDS011;15192;44.854;10.046;2023-05-10T12:04:05;4.03;;;3.05;;
27818;SDS011;15192;44.854;10.046;2023-05-10T12:06:36;4.50;;;3.75;;
27818;SDS011;15192;44.854;10.046;2023-05-10T12:09:06;4.70;;;3.75;;
27818;SDS011;15192;44.854;10.046;2023-05-10T12:11:36;4.60;;;3.65;;
27818;SDS011;15192;44.854;10.046;2023-05-10T12:14:07;5.63;;;4.30;;
27818;SDS011;15192;44.854;10.046;2023-05-10T12:16:37;5.12;;;3.80;;
27818;SDS011;15192;44.854;10.046;2023-05-10T12:19:06;6.67;;;4.50;;
27818;SDS011;15192;44.854;10.046;2023-05-10T12:21:35;5.17;;;4.37;;
27818;SDS011;15192;44.854;10.046;2023-05-10T12:24:05;8.30;;;4.35;;
27818;SDS011;15192;44.854;10.046;2023-05-10T12:26:35;8.08;;;4.47;;
27818;SDS011;15192;44.854;10.046;2023-05-10T12:29:17;4.90;;;4.40;;
27818;SDS011;15192;44.854;10.046;2023-05-10T12:31:53;6.62;;;4.78;;
27818;SDS011;15192;44.854;10.046;2023-05-10T12:34:26;6.30;;;4.53;;
27818;SDS011;15192;44.854;10.046;2023-05-10T12:36:59;6.15;;;4.62;;
27818;SDS011;15192;44.854;10.046;2023-05-10T12:39:42;6.25;;;4.80;;
27818;SDS011;15192;44.854;10.046;2023-05-10T12:42:12;7.83;;;4.60;;
27818;SDS011;15192;44.854;10.046;2023-05-10T12:44:41;6.60;;;4.62;;
27818;SDS011;15192;44.854;10.046;2023-05-10T12:47:10;6.40;;;4.55;;
27818;SDS011;15192;44.854;10.046;2023-05-10T12:49:39;5.80;;;4.47;;
27818;SDS011;15192;44.854;10.046;2023-05-10T12:52:08;6.10;;;5.05;;
27818;SDS011;15192;44.854;10.046;2023-05-10T12:54:37;7.15;;;4.80;;
27818;SDS011;15192;44.854;10.046;2023-05-10T12:57:06;5.40;;;4.35;;
27818;SDS011;15192;44.854;10.046;2023-05-10T12:59:35;5.83;;;4.45;;
27818;SDS011;15192;44.854;10.046;2023-05-10T13:02:04;3.95;;;3.52;;
27818;SDS011;15192;44.854;10.046;2023-05-10T13:04:32;6.28;;;4.10;;
27818;SDS011;15192;44.854;10.046;2023-05-10T13:07:01;4.75;;;3.98;;
27818;SDS011;15192;44.854;10.046;2023-05-10T13:09:30;9.35;;;4.28;;
27818;SDS011;15192;44.854;10.046;2023-05-10T13:11:59;5.70;;;4.30;;
27818;SDS011;15192;44.854;10.046;2023-05-10T13:14:28;4.95;;;4.00;;
27818;SDS011;15192;44.854;10.046;2023-05-10T13:16:57;5.92;;;4.00;;
27818;SDS011;15192;44.854;10.046;2023-05-10T13:19:26;4.45;;;4.00;;
27818;SDS011;15192;44.854;10.046;2023-05-10T13:21:55;3.87;;;3.30;;
27818;SDS011;15192;44.854;10.046;2023-05-10T13:24:24;5.08;;;4.05;;
27818;SDS011;15192;44.854;10.046;2023-05-10T13:26:53;7.22;;;3.85;;
27818;SDS011;15192;44.854;10.046;2023-05-10T13:29:22;5.75;;;4.10;;
27818;SDS011;15192;44.854;10.046;2023-05-10T13:31:51;6.15;;;3.85;;
27818;SDS011;15192;44.854;10.046;2023-05-10T13:34:20;5.50;;;4.15;;
27818;SDS011;15192;44.854;10.046;2023-05-10T13:36:49;6.78;;;3.75;;
27818;SDS011;15192;44.854;10.046;2023-05-10T13:39:20;5.62;;;3.98;;
27818;SDS011;15192;44.854;10.046;2023-05-10T13:41:48;5.30;;;3.75;;
27818;SDS011;15192;44.854;10.046;2023-05-10T13:44:17;4.85;;;3.95;;
27818;SDS011;15192;44.854;10.046;2023-05-10T13:46:48;4.10;;;3.22;;
27818;SDS011;15192;44.854;10.046;2023-05-10T13:49:17;5.08;;;3.50;;
27818;SDS011;15192;44.854;10.046;2023-05-10T13:51:46;5.53;;;4.20;;
27818;SDS011;15192;44.854;10.046;2023-05-10T13:54:15;5.72;;;4.12;;
27818;SDS011;15192;44.854;10.046;2023-05-10T13:56:45;5.62;;;3.72;;
27818;SDS011;15192;44.854;10.046;2023-05-10T13:59:15;5.95;;;3.90;;
27818;SDS011;15192;44.854;10.046;2023-05-10T14:01:44;5.30;;;3.27;;
27818;SDS011;15192;44.854;10.046;2023-05-10T14:04:13;4.33;;;3.12;;
27818;SDS011;15192;44.854;10.046;2023-05-10T14:06:42;5.65;;;3.60;;
27818;SDS011;15192;44.854;10.046;2023-05-10T14:09:11;3.65;;;3.25;;
27818;SDS011;15192;44.854;10.046;2023-05-10T14:11:40;7.67;;;4.37;;
27818;SDS011;15192;44.854;10.046;2023-05-10T14:14:10;5.65;;;3.70;;
27818;SDS011;15192;44.854;10.046;2023-05-10T14:16:42;7.10;;;4.22;;
27818;SDS011;15192;44.854;10.046;2023-05-10T14:19:13;5.12;;;3.90;;
27818;SDS011;15192;44.854;10.046;2023-05-10T14:21:42;5.00;;;3.60;;
27818;SDS011;15192;44.854;10.046;2023-05-10T14:24:11;4.22;;;3.77;;
27818;SDS011;15192;44.854;10.046;2023-05-10T14:26:40;4.80;;;3.30;;
27818;SDS011;15192;44.854;10.046;2023-05-10T14:29:09;7.33;;;4.30;;
27818;SDS011;15192;44.854;10.046;2023-05-10T14:31:37;7.58;;;4.10;;
27818;SDS011;15192;44.854;10.046;2023-05-10T14:34:06;6.15;;;3.72;;
27818;SDS011;15192;44.854;10.046;2023-05-10T14:36:35;5.28;;;3.77;;
27818;SDS011;15192;44.854;10.046;2023-05-10T14:39:04;6.03;;;4.50;;
27818;SDS011;15192;44.854;10.046;2023-05-10T14:41:33;5.85;;;4.33;;
27818;SDS011;15192;44.854;10.046;2023-05-10T14:44:02;6.10;;;4.17;;
27818;SDS011;15192;44.854;10.046;2023-05-10T14:46:31;5.40;;;3.83;;
27818;SDS011;15192;44.854;10.046;2023-05-10T14:49:01;5.58;;;4.22;;
27818;SDS011;15192;44.854;10.046;2023-05-10T14:51:30;7.00;;;4.42;;
27818;SDS011;15192;44.854;10.046;2023-05-10T14:53:59;5.15;;;3.87;;
27818;SDS011;15192;44.854;10.046;2023-05-10T14:56:29;6.78;;;4.03;;
27818;SDS011;15192;44.854;10.046;2023-05-10T14:58:58;4.05;;;3.60;;
27818;SDS011;15192;44.854;10.046;2023-05-10T15:01:27;9.48;;;4.47;;
27818;SDS011;15192;44.854;10.046;2023-05-10T15:03:56;5.62;;;4.25;;
27818;SDS011;15192;44.854;10.046;2023-05-10T15:06:30;4.65;;;3.25;;
27818;SDS011;15192;44.854;10.046;2023-05-10T15:08:58;5.10;;;4.05;;
27818;SDS011;15192;44.854;10.046;2023-05-10T15:11:28;6.08;;;4.30;;
27818;SDS011;15192;44.854;10.046;2023-05-10T15:13:57;5.65;;;3.98;;
27818;SDS011;15192;44.854;10.046;2023-05-10T15:16:26;6.33;;;4.53;;
27818;SDS011;15192;44.854;10.046;2023-05-10T15:18:55;7.33;;;4.72;;
27818;SDS011;15192;44.854;10.046;2023-05-10T15:21:23;6.33;;;4.33;;